Time;durP1;ratioP1;P1;durP2;ratioP2;P2;SDS_P1;SDS_P2;PMS_P1;PMS_P2;Temp;Humidity;BMP_temperature;BMP_pressure;BME280_temperature;BME280_humidity;BME280_pressure;Samples;Min_cycle;Max_cycle;Signal;HPM_P1;HPM_P2
2023/04/06 00:00:32;;;;;;;;;;;10.40;99.90;;;;;;6210842;23;20321;-87
2023/04/06 00:02:57;;;;;;;;;;;10.40;99.90;;;;;;6210369;23;19915;-86
2023/04/06 00:05:23;;;;;;;;;;;10.50;99.90;;;;;;6210899;23;19904;-87
2023/04/06 00:07:49;;;;;;;;;;;10.40;99.90;;;;;;6208670;23;19915;-85
2023/04/06 00:10:15;;;;;;;;;;;10.40;99.90;;;;;;6210229;23;19904;-87
2023/04/06 00:12:41;;;;;;;;;;;10.50;99.90;;;;;;6210985;23;20248;-86
2023/04/06 00:15:07;;;;;;;;;;;10.40;99.90;;;;;;6211919;23;19930;-87
2023/04/06 00:17:32;;;;;;;;;;;10.40;99.90;;;;;;6212856;23;19904;-87
2023/04/06 00:19:58;;;;;;;;;;;10.40;99.90;;;;;;6212198;23;20345;-86
2023/04/06 00:22:23;;;;;;;;;;;10.30;99.90;;;;;;6213712;23;20221;-86
2023/04/06 00:24:49;;;;;;;;;;;10.30;99.90;;;;;;6212632;23;19904;-85
2023/04/06 00:27:15;;;;;;;;;;;10.40;99.90;;;;;;6212163;23;19912;-86
2023/04/06 00:29:40;;;;;;;;;;;10.40;99.90;;;;;;6235977;23;19950;-86
2023/04/06 00:32:06;;;;;;;;;;;10.40;99.90;;;;;;6212666;23;19945;-87
2023/04/06 00:34:31;;;;;;;;;;;10.40;99.90;;;;;;6212550;23;19931;-87
2023/04/06 00:36:57;;;;;;;;;;;10.40;99.90;;;;;;6213472;23;19908;-87
2023/04/06 00:39:22;;;;;;;;;;;10.40;99.90;;;;;;6211890;23;19904;-86
2023/04/06 00:41:52;;;;;;;;;;;10.30;99.90;;;;;;6212273;23;19915;-86
2023/04/06 00:44:18;;;;;;;;;;;10.30;99.90;;;;;;6210969;23;19904;-86
2023/04/06 00:46:43;;;;;;;;;;;10.20;99.90;;;;;;6212747;23;19908;-85
2023/04/06 00:49:09;;;;;;;;;;;10.20;99.90;;;;;;6210854;23;19911;-86
2023/04/06 00:51:34;;;;;;;;;;;10.20;99.90;;;;;;6212245;23;19904;-87
2023/04/06 00:54:00;;;;;;;;;;;10.20;99.90;;;;;;6211719;23;19904;-86
2023/04/06 00:56:26;;;;;;;;;;;10.20;99.90;;;;;;6212009;23;20034;-86
2023/04/06 00:58:51;;;;;;;;;;;10.10;99.90;;;;;;6212577;23;19904;-86
2023/04/06 01:01:17;;;;;;;;;;;10.20;99.90;;;;;;6212307;23;19912;-86
2023/04/06 01:03:44;;;;;;;;;;;10.20;99.90;;;;;;6210206;23;19910;-86
2023/04/06 01:06:10;;;;;;;;;;;10.20;99.90;;;;;;6210636;23;19911;-86
2023/04/06 01:08:36;;;;;;;;;;;10.30;99.90;;;;;;6235320;23;19904;-85
2023/04/06 01:11:01;;;;;;;;;;;10.30;99.90;;;;;;6210810;23;19927;-85
2023/04/06 01:13:27;;;;;;;;;;;10.30;99.90;;;;;;6236983;23;19932;-86
2023/04/06 01:15:53;;;;;;;;;;;10.30;99.90;;;;;;6212196;23;20324;-86
2023/04/06 01:18:18;;;;;;;;;;;10.30;99.90;;;;;;6212217;23;19908;-86
2023/04/06 01:20:44;;;;;;;;;;;10.30;99.90;;;;;;6211861;23;19950;-87
2023/04/06 01:23:09;;;;;;;;;;;10.30;99.90;;;;;;6235658;23;19924;-86
2023/04/06 01:25:35;;;;;;;;;;;10.30;99.90;;;;;;6211274;23;19986;-86
2023/04/06 01:28:01;;;;;;;;;;;10.30;99.90;;;;;;6213144;23;19912;-86
2023/04/06 01:30:26;;;;;;;;;;;10.30;99.90;;;;;;6212955;23;19958;-87
2023/04/06 01:32:52;;;;;;;;;;;10.30;99.90;;;;;;6212170;23;20394;-86
2023/04/06 01:35:18;;;;;;;;;;;10.30;99.90;;;;;;6211575;23;19904;-86
2023/04/06 01:37:44;;;;;;;;;;;10.40;99.90;;;;;;6210217;23;19908;-87
2023/04/06 01:40:10;;;;;;;;;;;10.30;99.90;;;;;;6212207;23;19934;-89
2023/04/06 01:42:35;;;;;;;;;;;10.30;99.90;;;;;;6212111;23;19922;-88
2023/04/06 01:45:01;;;;;;;;;;;10.30;99.90;;;;;;6212528;23;19935;-87
2023/04/06 01:47:27;;;;;;;;;;;10.20;99.90;;;;;;6210782;23;20316;-88
2023/04/06 01:49:52;;;;;;;;;;;10.20;99.90;;;;;;6211984;23;20390;-88
2023/04/06 01:52:20;;;;;;;;;;;10.20;99.90;;;;;;6210103;23;19904;-88
2023/04/06 01:54:46;;;;;;;;;;;10.20;99.90;;;;;;6211968;23;19908;-87
2023/04/06 01:57:11;;;;;;;;;;;10.20;99.90;;;;;;6211970;23;19927;-88
2023/04/06 01:59:37;;;;;;;;;;;10.20;99.90;;;;;;6211929;23;20022;-88
2023/04/06 02:02:03;;;;;;;;;;;10.20;99.90;;;;;;6212016;23;19963;-88
2023/04/06 02:04:28;;;;;;;;;;;10.20;99.90;;;;;;6211663;23;19904;-87
2023/04/06 02:06:54;;;;;;;;;;;10.60;99.90;;;;;;6210709;23;20312;-87
2023/04/06 02:09:20;;;;;;;;;;;10.10;99.90;;;;;;6211969;23;19904;-89
2023/04/06 02:11:45;;;;;;;;;;;10.10;99.90;;;;;;6212071;23;19994;-89
2023/04/06 02:14:11;;;;;;;;;;;10.10;99.90;;;;;;6212062;23;19926;-91
2023/04/06 02:16:36;;;;;;;;;;;10.10;99.90;;;;;;6235879;23;20329;-89
2023/04/06 02:19:02;;;;;;;;;;;10.10;99.90;;;;;;6213778;23;19903;-90
2023/04/06 02:21:27;;;;;;;;;;;10.10;99.90;;;;;;6211044;23;19943;-90
2023/04/06 02:23:53;;;;;;;;;;;10.10;99.90;;;;;;6211144;23;19904;-89
2023/04/06 02:26:20;;;;;;;;;;;10.10;99.90;;;;;;6210215;23;20325;-89
2023/04/06 02:28:45;;;;;;;;;;;10.00;99.90;;;;;;6211852;23;19916;-90
2023/04/06 02:31:11;;;;;;;;;;;10.00;99.90;;;;;;6212022;23;20391;-91
2023/04/06 02:33:37;;;;;;;;;;;10.00;99.90;;;;;;6212021;23;19971;-90
2023/04/06 02:36:03;;;;;;;;;;;10.00;99.90;;;;;;6213195;23;19904;-91
2023/04/06 02:38:28;;;;;;;;;;;10.00;99.90;;;;;;6211032;23;19947;-89
2023/04/06 02:40:54;;;;;;;;;;;10.00;99.90;;;;;;6211715;23;19919;-92
2023/04/06 02:43:19;;;;;;;;;;;10.00;99.90;;;;;;6212975;23;19936;-93
2023/04/06 02:45:45;;;;;;;;;;;10.00;99.90;;;;;;6211527;23;19904;-91
2023/04/06 02:48:11;;;;;;;;;;;9.90;99.90;;;;;;6212186;23;19904;-92
2023/04/06 02:50:36;;;;;;;;;;;10.00;99.90;;;;;;6211991;23;19908;-92
2023/04/06 02:53:02;;;;;;;;;;;10.00;99.90;;;;;;6213682;23;19904;-91
2023/04/06 02:55:27;;;;;;;;;;;9.90;99.90;;;;;;6213058;23;19911;-90
2023/04/06 02:57:53;;;;;;;;;;;10.00;99.90;;;;;;6212382;23;19904;-91
2023/04/06 03:00:19;;;;;;;;;;;9.80;99.90;;;;;;6212344;23;19911;-93
2023/04/06 03:02:45;;;;;;;;;;;9.90;99.90;;;;;;6210425;23;19919;-93
2023/04/06 03:05:10;;;;;;;;;;;10.00;99.90;;;;;;6210872;23;19982;-90
2023/04/06 03:07:36;;;;;;;;;;;11.40;99.90;;;;;;6236860;23;19908;-91
2023/04/06 03:10:02;;;;;;;;;;;9.90;99.90;;;;;;6211861;23;19911;-89
2023/04/06 03:12:30;;;;;;;;;;;10.00;99.90;;;;;;6211137;23;19983;-95
2023/04/06 03:14:56;;;;;;;;;;;10.00;99.90;;;;;;6214342;23;20259;-94
2023/04/06 03:17:22;;;;;;;;;;;10.00;99.90;;;;;;6212798;23;20237;-92
2023/04/06 03:19:47;;;;;;;;;;;10.00;99.90;;;;;;6213727;23;19911;-94
2023/04/06 03:22:13;;;;;;;;;;;10.00;99.90;;;;;;6212791;23;19919;-92
2023/04/06 03:24:39;;;;;;;;;;;10.00;99.90;;;;;;6210935;23;19988;-90
2023/04/06 03:27:06;;;;;;;;;;;9.90;99.90;;;;;;6211406;23;19908;-91
2023/04/06 03:29:31;;;;;;;;;;;9.90;99.90;;;;;;6210770;23;20503;-91
2023/04/06 03:31:57;;;;;;;;;;;9.80;99.90;;;;;;6210503;23;20236;-90
2023/04/06 03:34:22;;;;;;;;;;;9.90;99.90;;;;;;6210313;23;20325;-89
2023/04/06 03:36:48;;;;;;;;;;;9.90;99.90;;;;;;6212802;23;20296;-90
2023/04/06 03:39:13;;;;;;;;;;;9.90;99.90;;;;;;6212085;23;19932;-90
2023/04/06 03:41:39;;;;;;;;;;;9.90;99.90;;;;;;6211969;23;19912;-90
2023/04/06 03:44:05;;;;;;;;;;;9.80;99.90;;;;;;6213044;23;19944;-86
2023/04/06 03:46:30;;;;;;;;;;;9.90;99.90;;;;;;6209309;23;19966;-88
2023/04/06 03:48:56;;;;;;;;;;;9.90;99.90;;;;;;6210452;23;19908;-88
2023/04/06 03:51:22;;;;;;;;;;;9.90;99.90;;;;;;6210908;23;19911;-88
2023/04/06 03:53:47;;;;;;;;;;;9.90;99.90;;;;;;6234592;23;19983;-88
2023/04/06 03:56:13;;;;;;;;;;;9.90;99.90;;;;;;6211105;23;19904;-88
2023/04/06 03:58:39;;;;;;;;;;;10.00;99.90;;;;;;6210077;23;19904;-88
2023/04/06 04:01:05;;;;;;;;;;;9.90;99.90;;;;;;6210749;23;19935;-88
2023/04/06 04:03:30;;;;;;;;;;;9.90;99.90;;;;;;6209426;23;20352;-88
2023/04/06 04:05:56;;;;;;;;;;;9.90;99.90;;;;;;6210990;23;19908;-88
2023/04/06 04:08:21;;;;;;;;;;;9.90;99.90;;;;;;6211082;23;19911;-87
2023/04/06 04:10:47;;;;;;;;;;;10.00;99.90;;;;;;6210753;23;19931;-88
2023/04/06 04:13:12;;;;;;;;;;;10.00;99.90;;;;;;6211065;23;19987;-88
2023/04/06 04:15:38;;;;;;;;;;;9.90;99.90;;;;;;6210784;23;20313;-89
2023/04/06 04:18:03;;;;;;;;;;;9.90;99.90;;;;;;6210635;23;20395;-87
2023/04/06 04:20:29;;;;;;;;;;;9.90;99.90;;;;;;6211229;23;20484;-89
2023/04/06 04:22:55;;;;;;;;;;;9.80;99.90;;;;;;6209565;23;20337;-88
2023/04/06 04:25:20;;;;;;;;;;;9.80;99.90;;;;;;6211794;23;19904;-88
2023/04/06 04:27:46;;;;;;;;;;;9.80;99.90;;;;;;6211609;23;20220;-90
2023/04/06 04:30:11;;;;;;;;;;;9.80;99.90;;;;;;6211213;23;19927;-88
2023/04/06 04:32:37;;;;;;;;;;;9.70;99.90;;;;;;6211577;23;20244;-88
2023/04/06 04:35:03;;;;;;;;;;;9.80;99.90;;;;;;6210980;23;19912;-90
2023/04/06 04:37:28;;;;;;;;;;;9.80;99.90;;;;;;6210876;23;19991;-89
2023/04/06 04:39:54;;;;;;;;;;;9.70;99.90;;;;;;6211682;23;19952;-90
2023/04/06 04:42:19;;;;;;;;;;;9.70;99.90;;;;;;6210559;23;19987;-89
2023/04/06 04:44:45;;;;;;;;;;;9.70;99.90;;;;;;6210558;23;19907;-91
2023/04/06 04:47:10;;;;;;;;;;;9.70;99.90;;;;;;6212272;23;20244;-89
2023/04/06 04:49:36;;;;;;;;;;;10.30;99.90;;;;;;6210023;23;19978;-89
2023/04/06 04:52:01;;;;;;;;;;;9.70;99.90;;;;;;6234412;23;19915;-89
2023/04/06 04:54:27;;;;;;;;;;;9.60;99.90;;;;;;6209660;23;19911;-89
2023/04/06 04:56:53;;;;;;;;;;;9.80;99.90;;;;;;6211100;23;20288;-90
2023/04/06 04:59:19;;;;;;;;;;;9.80;99.90;;;;;;6206056;23;20014;-89
2023/04/06 05:01:45;;;;;;;;;;;9.70;99.90;;;;;;6208102;23;19908;-88
2023/04/06 05:04:11;;;;;;;;;;;9.80;99.90;;;;;;6211399;23;20308;-88
2023/04/06 05:06:36;;;;;;;;;;;9.80;99.90;;;;;;6211913;23;19911;-88
2023/04/06 05:09:02;;;;;;;;;;;9.70;99.90;;;;;;6213094;23;19928;-89
2023/04/06 05:11:27;;;;;;;;;;;9.70;99.90;;;;;;6212655;23;19904;-89
2023/04/06 05:13:53;;;;;;;;;;;9.80;99.90;;;;;;6212173;23;20047;-90
2023/04/06 05:16:19;;;;;;;;;;;9.70;99.90;;;;;;6210791;23;19911;-90
2023/04/06 05:18:44;;;;;;;;;;;9.70;99.90;;;;;;6211594;23;19910;-88
2023/04/06 05:21:10;;;;;;;;;;;9.70;99.90;;;;;;6213500;23;19914;-89
2023/04/06 05:23:36;;;;;;;;;;;9.70;99.90;;;;;;6210892;23;19904;-92
2023/04/06 05:26:01;;;;;;;;;;;9.80;99.90;;;;;;6211924;23;20349;-89
2023/04/06 05:28:27;;;;;;;;;;;9.80;99.90;;;;;;6212572;23;19912;-88
2023/04/06 05:30:52;;;;;;;;;;;9.90;99.90;;;;;;6236039;23;19904;-89
2023/04/06 05:33:18;;;;;;;;;;;9.90;99.90;;;;;;6212356;23;19904;-88
2023/04/06 05:35:44;;;;;;;;;;;9.90;99.90;;;;;;6236098;23;19908;-89
2023/04/06 05:38:10;;;;;;;;;;;9.80;99.90;;;;;;6212335;23;19904;-91
2023/04/06 05:40:36;;;;;;;;;;;9.80;99.90;;;;;;6210238;23;20328;-89
2023/04/06 05:43:02;;;;;;;;;;;9.90;99.90;;;;;;6210154;23;19911;-90
2023/04/06 05:45:27;;;;;;;;;;;9.90;99.90;;;;;;6211330;23;19911;-89
2023/04/06 05:47:53;;;;;;;;;;;9.90;99.90;;;;;;6211574;23;20252;-89
2023/04/06 05:50:19;;;;;;;;;;;10.00;99.90;;;;;;6211855;23;19990;-90
2023/04/06 05:52:46;;;;;;;;;;;10.00;99.90;;;;;;6213271;23;19919;-91
2023/04/06 05:55:11;;;;;;;;;;;10.00;99.90;;;;;;6212256;23;19911;-90
2023/04/06 05:57:37;;;;;;;;;;;10.00;99.90;;;;;;6212658;23;19908;-91
2023/04/06 06:00:03;;;;;;;;;;;10.00;99.90;;;;;;6211063;23;19950;-90
2023/04/06 06:02:32;;;;;;;;;;;10.00;99.90;;;;;;6211119;23;20376;-90
2023/04/06 06:04:57;;;;;;;;;;;10.00;99.90;;;;;;6211922;23;20332;-90
2023/04/06 06:07:23;;;;;;;;;;;10.00;99.90;;;;;;6211845;23;19931;-91
2023/04/06 06:09:49;;;;;;;;;;;10.00;99.90;;;;;;6213064;23;19951;-91
2023/04/06 06:12:14;;;;;;;;;;;10.00;99.90;;;;;;6212328;23;19908;-91
2023/04/06 06:14:40;;;;;;;;;;;10.00;99.90;;;;;;6211155;23;19952;-91
2023/04/06 06:17:06;;;;;;;;;;;10.00;99.90;;;;;;6211226;23;20120;-91
2023/04/06 06:19:31;;;;;;;;;;;10.00;99.90;;;;;;6211283;23;19904;-92
2023/04/06 06:21:57;;;;;;;;;;;10.10;99.90;;;;;;6211093;23;19923;-91
2023/04/06 06:24:22;;;;;;;;;;;10.10;99.90;;;;;;6211086;23;19908;-90
2023/04/06 06:26:48;;;;;;;;;;;10.20;99.90;;;;;;6212282;23;19911;-90
2023/04/06 06:29:14;;;;;;;;;;;10.10;99.90;;;;;;6211979;23;19908;-91
2023/04/06 06:31:40;;;;;;;;;;;9.80;99.90;;;;;;6210835;23;19904;-91
2023/04/06 06:34:05;;;;;;;;;;;10.20;99.90;;;;;;6212470;23;19949;-91
2023/04/06 06:36:31;;;;;;;;;;;10.20;99.90;;;;;;6210925;23;19971;-93
2023/04/06 06:38:58;;;;;;;;;;;10.20;99.90;;;;;;6210794;23;19908;-91
2023/04/06 06:41:24;;;;;;;;;;;10.30;99.90;;;;;;6211544;23;19914;-89
2023/04/06 06:43:49;;;;;;;;;;;10.30;99.90;;;;;;6210786;23;19912;-89
2023/04/06 06:46:15;;;;;;;;;;;10.40;99.90;;;;;;6213225;23;19999;-93
2023/04/06 06:48:40;;;;;;;;;;;10.40;99.90;;;;;;6210661;23;19904;-90
2023/04/06 06:51:06;;;;;;;;;;;10.40;99.90;;;;;;6211784;23;19962;-90
2023/04/06 06:53:32;;;;;;;;;;;10.50;99.90;;;;;;6210105;23;20335;-90
2023/04/06 06:55:57;;;;;;;;;;;10.60;99.90;;;;;;6210549;23;19904;-91
2023/04/06 06:58:23;;;;;;;;;;;10.60;99.90;;;;;;6209708;23;19958;-90
2023/04/06 07:00:48;;;;;;;;;;;10.70;99.90;;;;;;6212143;23;19978;-88
2023/04/06 07:03:14;;;;;;;;;;;10.80;99.90;;;;;;6210997;23;20236;-89
2023/04/06 07:05:45;;;;;;;;;;;10.60;99.90;;;;;;6210187;23;19908;-90
2023/04/06 07:08:10;;;;;;;;;;;10.60;99.90;;;;;;6209916;23;19904;-90
2023/04/06 07:10:36;;;;;;;;;;;10.60;99.90;;;;;;6211510;23;19911;-90
2023/04/06 07:13:01;;;;;;;;;;;10.70;99.90;;;;;;6209307;23;19935;-90
2023/04/06 07:15:27;;;;;;;;;;;10.70;99.90;;;;;;6211608;23;19907;-91
2023/04/06 07:17:54;;;;;;;;;;;10.70;99.90;;;;;;6210120;23;19950;-91
2023/04/06 07:20:20;;;;;;;;;;;10.80;99.90;;;;;;6210664;23;20352;-91
2023/04/06 07:22:45;;;;;;;;;;;10.80;99.90;;;;;;6235879;23;19912;-90
2023/04/06 07:25:11;;;;;;;;;;;10.70;99.90;;;;;;6211444;23;19911;-89
2023/04/06 07:27:36;;;;;;;;;;;10.70;99.90;;;;;;6211308;23;19916;-90
2023/04/06 07:30:05;;;;;;;;;;;10.70;99.90;;;;;;6209350;23;22590;-91
2023/04/06 07:32:31;;;;;;;;;;;10.70;99.90;;;;;;6210241;23;19904;-91
2023/04/06 07:34:57;;;;;;;;;;;10.60;99.90;;;;;;6212007;23;19962;-91
2023/04/06 07:37:23;;;;;;;;;;;10.70;99.90;;;;;;6210595;23;19903;-89
2023/04/06 07:39:48;;;;;;;;;;;10.70;99.90;;;;;;6211048;23;20275;-91
2023/04/06 07:42:14;;;;;;;;;;;10.60;99.90;;;;;;6209987;23;19912;-90
2023/04/06 07:44:39;;;;;;;;;;;10.60;99.90;;;;;;6211235;23;20390;-90
2023/04/06 07:47:05;;;;;;;;;;;10.60;99.90;;;;;;6211740;23;20287;-91
2023/04/06 07:49:32;;;;;;;;;;;10.60;99.90;;;;;;6211715;23;19978;-92
2023/04/06 07:51:57;;;;;;;;;;;10.60;99.90;;;;;;6211645;23;19908;-90
2023/04/06 07:54:23;;;;;;;;;;;10.60;99.90;;;;;;6210177;23;20359;-90
2023/04/06 07:56:48;;;;;;;;;;;10.70;99.90;;;;;;6212240;23;20317;-90
2023/04/06 07:59:14;;;;;;;;;;;10.60;99.90;;;;;;6211594;23;19958;-90
2023/04/06 08:01:40;;;;;;;;;;;10.70;99.90;;;;;;6209445;23;19912;-89
2023/04/06 08:04:05;;;;;;;;;;;10.70;99.90;;;;;;6211666;23;19942;-89
2023/04/06 08:06:31;;;;;;;;;;;10.70;99.90;;;;;;6209642;23;20221;-89
2023/04/06 08:08:56;;;;;;;;;;;10.80;99.90;;;;;;6211433;23;19986;-90
2023/04/06 08:11:22;;;;;;;;;;;11.00;99.90;;;;;;6212378;23;19904;-89
2023/04/06 08:13:48;;;;;;;;;;;11.20;99.90;;;;;;6210805;23;19918;-90
2023/04/06 08:16:13;;;;;;;;;;;11.20;99.90;;;;;;6210128;23;19935;-90
2023/04/06 08:18:39;;;;;;;;;;;11.20;99.90;;;;;;6209919;23;19904;-90
2023/04/06 08:21:04;;;;;;;;;;;11.50;99.90;;;;;;6209374;23;19950;-90
2023/04/06 08:23:30;;;;;;;;;;;11.50;99.90;;;;;;6210998;23;19908;-91
2023/04/06 08:25:55;;;;;;;;;;;11.60;99.90;;;;;;6211288;23;19968;-90
2023/04/06 08:28:21;;;;;;;;;;;11.50;99.90;;;;;;6212169;23;20230;-91
2023/04/06 08:30:50;;;;;;;;;;;11.60;99.90;;;;;;6209885;23;19908;-90
2023/04/06 08:33:15;;;;;;;;;;;11.50;99.90;;;;;;6209911;23;20240;-91
2023/04/06 08:35:41;;;;;;;;;;;11.60;99.90;;;;;;6211404;23;20343;-90
2023/04/06 08:38:07;;;;;;;;;;;11.60;99.90;;;;;;6212999;23;19908;-90
2023/04/06 08:40:36;;;;;;;;;;;11.60;99.90;;;;;;6213280;23;19938;-91
2023/04/06 08:43:03;;;;;;;;;;;11.70;99.90;;;;;;6212046;23;20344;-91
2023/04/06 08:45:29;;;;;;;;;;;11.70;99.90;;;;;;6212005;23;20320;-91
2023/04/06 08:47:58;;;;;;;;;;;11.70;99.90;;;;;;6213686;23;20003;-90
2023/04/06 08:50:24;;;;;;;;;;;11.70;99.90;;;;;;6212464;23;20329;-90
2023/04/06 08:52:50;;;;;;;;;;;11.90;99.90;;;;;;6212275;23;19951;-90
2023/04/06 08:55:16;;;;;;;;;;;11.80;99.90;;;;;;6211360;23;19904;-90
2023/04/06 08:57:42;;;;;;;;;;;12.00;99.90;;;;;;6211288;23;19913;-90
2023/04/06 09:00:09;;;;;;;;;;;12.10;99.90;;;;;;6213182;23;19908;-90
2023/04/06 09:02:37;;;;;;;;;;;12.20;99.90;;;;;;6211525;23;20376;-90
2023/04/06 09:05:03;;;;;;;;;;;12.50;99.90;;;;;;6213284;23;19904;-91
2023/04/06 09:07:29;;;;;;;;;;;12.50;99.90;;;;;;6236621;23;19911;-90
2023/04/06 09:09:57;;;;;;;;;;;12.60;99.90;;;;;;6237300;23;19907;-91
2023/04/06 09:12:24;;;;;;;;;;;12.60;99.90;;;;;;6213933;23;19911;-90
2023/04/06 09:14:50;;;;;;;;;;;12.40;99.90;;;;;;6213418;23;20315;-90
2023/04/06 09:17:21;;;;;;;;;;;12.30;99.90;;;;;;6212739;23;20329;-91
2023/04/06 09:19:47;;;;;;;;;;;12.30;99.90;;;;;;6213068;23;19908;-91
2023/04/06 09:22:13;;;;;;;;;;;12.30;99.90;;;;;;6212727;23;19919;-91
2023/04/06 09:24:42;;;;;;;;;;;12.40;99.90;;;;;;6213234;23;19904;-90
2023/04/06 09:27:08;;;;;;;;;;;12.20;99.90;;;;;;6211727;23;19908;-90
2023/04/06 09:29:34;;;;;;;;;;;12.20;99.90;;;;;;6211138;23;20028;-90
2023/04/06 09:32:07;;;;;;;;;;;12.00;99.90;;;;;;6211247;23;19976;-90
2023/04/06 09:34:33;;;;;;;;;;;12.00;99.90;;;;;;6212637;23;20287;-89
2023/04/06 09:36:59;;;;;;;;;;;12.00;99.90;;;;;;6212248;23;19904;-89
2023/04/06 09:39:25;;;;;;;;;;;11.80;99.90;;;;;;6211766;23;19985;-89
2023/04/06 09:41:51;;;;;;;;;;;12.10;99.90;;;;;;6212642;23;19935;-89
2023/04/06 09:44:17;;;;;;;;;;;;;;;;;;6212507;23;20234;-89
2023/04/06 09:46:43;;;;;;;;;;;12.10;99.90;;;;;;6212015;23;20329;-89
2023/04/06 09:49:09;;;;;;;;;;;12.20;99.90;;;;;;6210800;23;20287;-89
2023/04/06 09:51:36;;;;;;;;;;;12.30;99.90;;;;;;6212660;23;19904;-89
2023/04/06 09:54:04;;;;;;;;;;;12.10;99.90;;;;;;6210298;23;20317;-88
2023/04/06 09:56:51;;;;;;;;;;;12.20;99.90;;;;;;6212784;23;19976;-90
2023/04/06 09:59:20;;;;;;;;;;;12.40;99.90;;;;;;6212361;23;20236;-89
2023/04/06 10:01:48;;;;;;;;;;;12.40;99.90;;;;;;6212003;23;19908;-88
2023/04/06 10:04:13;;;;;;;;;;;12.50;99.90;;;;;;6212168;23;19910;-88
2023/04/06 10:06:39;;;;;;;;;;;12.50;99.90;;;;;;6212248;23;19982;-89
2023/04/06 10:09:07;;;;;;;;;;;12.50;99.90;;;;;;6211222;23;19904;-89
2023/04/06 10:11:34;;;;;;;;;;;12.50;99.90;;;;;;6210520;23;19904;-88
2023/04/06 10:14:00;;;;;;;;;;;12.60;99.90;;;;;;6211466;23;19904;-87
2023/04/06 10:16:27;;;;;;;;;;;12.50;99.90;;;;;;6212892;23;19927;-88
2023/04/06 10:18:56;;;;;;;;;;;12.40;99.90;;;;;;6235920;23;19987;-88
2023/04/06 10:21:25;;;;;;;;;;;12.50;99.90;;;;;;6210446;23;19912;-88
2023/04/06 10:24:06;;;;;;;;;;;12.60;99.90;;;;;;6211947;23;20331;-89
2023/04/06 10:26:32;;;;;;;;;;;12.60;99.90;;;;;;6212154;23;20217;-90
2023/04/06 10:29:02;;;;;;;;;;;12.60;99.90;;;;;;6212855;23;19970;-89
2023/04/06 10:31:28;;;;;;;;;;;12.90;99.90;;;;;;6213255;23;20305;-90
2023/04/06 10:33:57;;;;;;;;;;;13.20;99.90;;;;;;6210595;23;19904;-89
2023/04/06 10:36:26;;;;;;;;;;;13.50;99.90;;;;;;6210814;23;19979;-89
2023/04/06 10:38:57;;;;;;;;;;;13.50;99.90;;;;;;6212536;23;19904;-90
2023/04/06 10:41:22;;;;;;;;;;;13.80;99.90;;;;;;6210670;23;19915;-90
2023/04/06 10:43:55;;;;;;;;;;;13.90;99.90;;;;;;6212749;23;19903;-90
2023/04/06 10:46:24;;;;;;;;;;;14.30;99.90;;;;;;6211035;23;19908;-89
2023/04/06 10:48:50;;;;;;;;;;;14.40;99.90;;;;;;6211139;23;20634;-91
2023/04/06 10:51:16;;;;;;;;;;;14.70;99.90;;;;;;6211040;23;19987;-90
2023/04/06 10:53:49;;;;;;;;;;;14.60;99.90;;;;;;6209863;23;19911;-90
2023/04/06 10:56:15;;;;;;;;;;;14.60;99.90;;;;;;6212275;23;19978;-90
2023/04/06 10:58:48;;;;;;;;;;;14.30;99.90;;;;;;6210862;23;19904;-90
2023/04/06 11:01:20;;;;;;;;;;;14.40;99.90;;;;;;6210846;23;20394;-90
2023/04/06 11:03:50;;;;;;;;;;;14.40;99.90;;;;;;6212276;23;19908;-89
2023/04/06 11:06:20;;;;;;;;;;;14.30;99.90;;;;;;6212277;23;19904;-91
2023/04/06 11:08:45;;;;;;;;;;;14.40;99.90;;;;;;6212147;23;19904;-90
2023/04/06 11:11:15;;;;;;;;;;;14.40;99.90;;;;;;6210895;23;19904;-90
2023/04/06 11:13:42;;;;;;;;;;;14.50;99.90;;;;;;6210595;23;19904;-91
2023/04/06 11:16:24;;;;;;;;;;;14.60;99.90;;;;;;6212209;23;19915;-90
2023/04/06 11:19:00;;;;;;;;;;;14.60;99.90;;;;;;6210498;23;19904;-90
2023/04/06 11:21:35;;;;;;;;;;;14.60;99.90;;;;;;6212424;23;19907;-90
2023/04/06 11:24:07;;;;;;;;;;;14.70;99.90;;;;;;6213262;23;19950;-91
2023/04/06 11:26:37;;;;;;;;;;;14.80;99.90;;;;;;6211193;23;19904;-90
2023/04/06 11:29:03;;;;;;;;;;;14.80;99.90;;;;;;6211108;23;19912;-90
2023/04/06 11:31:28;;;;;;;;;;;14.70;99.90;;;;;;6211347;23;19904;-91
2023/04/06 11:33:57;;;;;;;;;;;14.80;99.90;;;;;;6212355;23;19958;-90
2023/04/06 11:36:23;;;;;;;;;;;15.10;99.90;;;;;;6210738;23;20316;-91
2023/04/06 11:38:49;;;;;;;;;;;14.90;99.90;;;;;;6212070;23;19982;-89
2023/04/06 11:41:15;;;;;;;;;;;15.10;99.90;;;;;;6210423;23;19912;-91
2023/04/06 11:43:47;;;;;;;;;;;15.30;99.90;;;;;;6211882;23;19908;-91
2023/04/06 11:46:17;;;;;;;;;;;15.20;99.90;;;;;;6209918;23;20300;-91
2023/04/06 11:48:46;;;;;;;;;;;15.20;99.90;;;;;;6210626;23;19908;-90
2023/04/06 11:51:11;;;;;;;;;;;15.40;99.90;;;;;;6210677;23;19904;-91
2023/04/06 11:53:46;;;;;;;;;;;15.50;99.90;;;;;;6210625;23;20351;-90
2023/04/06 11:56:22;;;;;;;;;;;15.70;99.90;;;;;;6210411;23;19904;-90
2023/04/06 11:58:47;;;;;;;;;;;15.70;99.90;;;;;;6210438;23;19963;-91
2023/04/06 12:01:13;;;;;;;;;;;15.40;99.90;;;;;;6210494;23;20344;-91
2023/04/06 12:03:38;;;;;;;;;;;15.40;99.90;;;;;;6210366;23;19911;-91
2023/04/06 12:06:05;;;;;;;;;;;15.20;99.90;;;;;;6212619;23;19983;-90
2023/04/06 12:08:30;;;;;;;;;;;15.10;99.90;;;;;;6210805;23;19919;-90
2023/04/06 12:10:56;;;;;;;;;;;14.90;99.90;;;;;;6213739;23;19904;-89
2023/04/06 12:13:21;;;;;;;;;;;14.90;99.90;;;;;;6212325;23;19978;-90
2023/04/06 12:15:47;;;;;;;;;;;15.00;99.90;;;;;;6214239;23;19908;-90
2023/04/06 12:18:13;;;;;;;;;;;15.10;99.90;;;;;;6212768;23;19904;-91
2023/04/06 12:20:38;;;;;;;;;;;14.80;99.90;;;;;;6213301;23;19904;-90
2023/04/06 12:23:04;;;;;;;;;;;15.00;99.90;;;;;;6212842;23;19912;-89
2023/04/06 12:25:30;;;;;;;;;;;14.70;99.90;;;;;;6213532;23;19904;-90
2023/04/06 12:27:55;;;;;;;;;;;14.70;99.90;;;;;;6213593;23;19915;-91
2023/04/06 12:30:21;;;;;;;;;;;14.70;99.90;;;;;;6213929;23;19958;-89
2023/04/06 12:32:47;;;;;;;;;;;14.60;99.90;;;;;;6213488;23;19908;-90
2023/04/06 12:35:15;;;;;;;;;;;14.50;99.90;;;;;;6212619;23;19926;-89
2023/04/06 12:37:42;;;;;;;;;;;14.50;99.90;;;;;;6212003;23;19954;-90
2023/04/06 12:40:07;;;;;;;;;;;14.40;99.90;;;;;;6213615;23;19919;-90
2023/04/06 12:42:33;;;;;;;;;;;14.40;99.90;;;;;;6212427;23;19912;-90
2023/04/06 12:44:59;;;;;;;;;;;14.40;99.90;;;;;;6213652;23;20010;-90
2023/04/06 12:47:26;;;;;;;;;;;14.10;99.90;;;;;;6212061;23;20355;-89
2023/04/06 12:49:51;;;;;;;;;;;14.00;99.90;;;;;;6212341;23;20347;-90
2023/04/06 12:52:17;;;;;;;;;;;13.90;99.90;;;;;;6212100;23;19987;-90
2023/04/06 12:54:43;;;;;;;;;;;13.60;99.90;;;;;;6212037;23;19904;-90
2023/04/06 12:57:08;;;;;;;;;;;13.90;99.90;;;;;;6212653;23;20221;-91
2023/04/06 12:59:35;;;;;;;;;;;13.80;99.90;;;;;;6212209;23;20234;-91
2023/04/06 13:02:00;;;;;;;;;;;13.80;99.90;;;;;;6212086;23;20336;-90
2023/04/06 13:04:26;;;;;;;;;;;14.10;99.90;;;;;;6212066;23;19911;-91
2023/04/06 13:06:52;;;;;;;;;;;14.20;99.90;;;;;;6213446;23;19958;-90
2023/04/06 13:09:17;;;;;;;;;;;14.50;99.90;;;;;;6237004;23;19914;-90
2023/04/06 13:11:43;;;;;;;;;;;14.40;99.90;;;;;;6211988;23;19936;-91
2023/04/06 13:14:09;;;;;;;;;;;14.80;99.90;;;;;;6213462;23;19973;-91
2023/04/06 13:16:35;;;;;;;;;;;15.00;99.90;;;;;;6214025;23;19904;-89
2023/04/06 13:19:01;;;;;;;;;;;15.10;99.90;;;;;;6213241;23;19904;-90
2023/04/06 13:21:26;;;;;;;;;;;15.00;99.90;;;;;;6211730;23;20253;-89
2023/04/06 13:23:52;;;;;;;;;;;15.00;99.90;;;;;;6213192;23;19908;-90
2023/04/06 13:26:17;;;;;;;;;;;14.80;99.90;;;;;;6211962;23;19915;-89
2023/04/06 13:28:43;;;;;;;;;;;14.70;99.90;;;;;;6211353;23;20249;-88
2023/04/06 13:31:09;;;;;;;;;;;14.40;99.90;;;;;;6212453;23;19904;-89
2023/04/06 13:33:35;;;;;;;;;;;14.60;99.90;;;;;;6212411;23;19904;-88
2023/04/06 13:36:01;;;;;;;;;;;14.80;99.90;;;;;;6212988;23;19947;-90
2023/04/06 13:38:27;;;;;;;;;;;14.90;99.90;;;;;;6211363;23;20333;-90
2023/04/06 13:40:52;;;;;;;;;;;15.00;99.90;;;;;;6213240;23;19950;-88
2023/04/06 13:43:20;;;;;;;;;;;14.90;99.90;;;;;;6212368;23;19970;-91
2023/04/06 13:45:53;;;;;;;;;;;14.80;99.90;;;;;;6211357;23;20217;-90
2023/04/06 13:48:19;;;;;;;;;;;14.90;99.90;;;;;;6211951;23;19904;-89
2023/04/06 13:50:47;;;;;;;;;;;14.90;99.90;;;;;;6211560;23;19915;-89
2023/04/06 13:53:13;;;;;;;;;;;15.00;99.90;;;;;;6212991;23;19939;-90
2023/04/06 13:55:39;;;;;;;;;;;14.80;99.90;;;;;;6212698;23;19958;-90
2023/04/06 13:58:04;;;;;;;;;;;14.70;99.90;;;;;;6236182;23;19910;-90
2023/04/06 14:00:30;;;;;;;;;;;14.50;99.90;;;;;;6211201;23;20186;-90
2023/04/06 14:02:56;;;;;;;;;;;14.50;99.90;;;;;;6211247;23;19912;-91
2023/04/06 14:05:23;;;;;;;;;;;14.20;99.90;;;;;;6212958;23;19904;-90
2023/04/06 14:07:49;;;;;;;;;;;14.10;99.90;;;;;;6211261;23;19907;-90
2023/04/06 14:10:14;;;;;;;;;;;14.00;99.90;;;;;;6211792;23;19935;-90
2023/04/06 14:12:44;;;;;;;;;;;13.70;99.90;;;;;;6212148;23;19903;-92